sensor_id;sensor_type;location;lat;lon;timestamp;temperature;humidity
78054;DHT22;67726;45.636;11.752;2023-08-01T00:00:28;24.60;73.30
78054;DHT22;67726;45.636;11.752;2023-08-01T00:02:54;24.60;73.40
78054;DHT22;67726;45.636;11.752;2023-08-01T00:05:19;24.50;72.80
78054;DHT22;67726;45.636;11.752;2023-08-01T00:07:45;24.50;73.40
78054;DHT22;67726;45.636;11.752;2023-08-01T00:10:11;24.40;73.30
78054;DHT22;67726;45.636;11.752;2023-08-01T00:12:36;24.40;73.50
78054;DHT22;67726;45.636;11.752;2023-08-01T00:15:03;24.40;73.80
78054;DHT22;67726;45.636;11.752;2023-08-01T00:17:29;24.30;73.50
78054;DHT22;67726;45.636;11.752;2023-08-01T00:19:54;24.30;74.40
78054;DHT22;67726;45.636;11.752;2023-08-01T00:22:21;24.30;74.40
78054;DHT22;67726;45.636;11.752;2023-08-01T00:24:46;24.30;74.40
78054;DHT22;67726;45.636;11.752;2023-08-01T00:27:15;24.40;74.10
78054;DHT22;67726;45.636;11.752;2023-08-01T00:29:41;24.30;74.40
78054;DHT22;67726;45.636;11.752;2023-08-01T00:32:06;24.40;74.20
78054;DHT22;67726;45.636;11.752;2023-08-01T00:34:32;24.30;74.30
78054;DHT22;67726;45.636;11.752;2023-08-01T00:36:58;24.20;74.10
78054;DHT22;67726;45.636;11.752;2023-08-01T00:39:23;24.30;74.20
78054;DHT22;67726;45.636;11.752;2023-08-01T00:41:49;24.20;74.70
78054;DHT22;67726;45.636;11.752;2023-08-01T00:44:15;24.20;74.50
78054;DHT22;67726;45.636;11.752;2023-08-01T00:46:40;24.20;74.20
78054;DHT22;67726;45.636;11.752;2023-08-01T00:49:06;24.10;74.40
78054;DHT22;67726;45.636;11.752;2023-08-01T00:51:34;24.10;74.50
78054;DHT22;67726;45.636;11.752;2023-08-01T00:54:00;24.00;74.70
78054;DHT22;67726;45.636;11.752;2023-08-01T00:56:26;23.90;74.80
78054;DHT22;67726;45.636;11.752;2023-08-01T00:58:51;24.10;75.00
78054;DHT22;67726;45.636;11.752;2023-08-01T01:01:17;24.10;75.00
78054;DHT22;67726;45.636;11.752;2023-08-01T01:03:43;24.10;75.30
78054;DHT22;67726;45.636;11.752;2023-08-01T01:06:16;24.20;74.90
78054;DHT22;67726;45.636;11.752;2023-08-01T01:08:44;24.20;74.50
78054;DHT22;67726;45.636;11.752;2023-08-01T01:11:10;24.20;74.70
78054;DHT22;67726;45.636;11.752;2023-08-01T01:13:35;24.10;74.40
78054;DHT22;67726;45.636;11.752;2023-08-01T01:16:01;24.10;74.50
78054;DHT22;67726;45.636;11.752;2023-08-01T01:18:27;24.10;74.60
78054;DHT22;67726;45.636;11.752;2023-08-01T01:20:53;24.10;74.50
78054;DHT22;67726;45.636;11.752;2023-08-01T01:23:19;24.10;74.60
78054;DHT22;67726;45.636;11.752;2023-08-01T01:25:46;24.20;74.40
78054;DHT22;67726;45.636;11.752;2023-08-01T01:28:13;24.20;74.20
78054;DHT22;67726;45.636;11.752;2023-08-01T01:30:40;24.20;74.30
78054;DHT22;67726;45.636;11.752;2023-08-01T01:33:07;24.30;74.50
78054;DHT22;67726;45.636;11.752;2023-08-01T01:35:36;24.20;74.30
78054;DHT22;67726;45.636;11.752;2023-08-01T01:38:02;24.30;74.20
78054;DHT22;67726;45.636;11.752;2023-08-01T01:40:31;24.20;74.30
78054;DHT22;67726;45.636;11.752;2023-08-01T01:42:57;24.20;74.20
78054;DHT22;67726;45.636;11.752;2023-08-01T01:45:23;24.10;74.30
78054;DHT22;67726;45.636;11.752;2023-08-01T01:47:48;24.10;74.40
78054;DHT22;67726;45.636;11.752;2023-08-01T01:50:14;24.20;74.50
78054;DHT22;67726;45.636;11.752;2023-08-01T01:52:40;24.10;74.40
78054;DHT22;67726;45.636;11.752;2023-08-01T01:55:05;24.10;74.90
78054;DHT22;67726;45.636;11.752;2023-08-01T01:57:31;24.10;74.50
78054;DHT22;67726;45.636;11.752;2023-08-01T01:59:57;24.10;74.50
78054;DHT22;67726;45.636;11.752;2023-08-01T02:02:22;24.10;74.30
78054;DHT22;67726;45.636;11.752;2023-08-01T02:04:50;24.20;74.40
78054;DHT22;67726;45.636;11.752;2023-08-01T02:07:15;24.20;74.40
78054;DHT22;67726;45.636;11.752;2023-08-01T02:09:41;24.10;74.50
78054;DHT22;67726;45.636;11.752;2023-08-01T02:12:07;24.10;74.50
78054;DHT22;67726;45.636;11.752;2023-08-01T02:14:35;24.10;74.70
78054;DHT22;67726;45.636;11.752;2023-08-01T02:17:01;24.10;74.60
78054;DHT22;67726;45.636;11.752;2023-08-01T02:19:27;24.10;74.50
78054;DHT22;67726;45.636;11.752;2023-08-01T02:21:53;24.10;74.40
78054;DHT22;67726;45.636;11.752;2023-08-01T02:24:19;24.00;74.30
78054;DHT22;67726;45.636;11.752;2023-08-01T02:26:45;24.10;74.20
78054;DHT22;67726;45.636;11.752;2023-08-01T02:29:10;24.00;74.20
78054;DHT22;67726;45.636;11.752;2023-08-01T02:31:36;24.00;73.90
78054;DHT22;67726;45.636;11.752;2023-08-01T02:34:02;24.10;73.90
78054;DHT22;67726;45.636;11.752;2023-08-01T02:36:27;24.10;73.50
78054;DHT22;67726;45.636;11.752;2023-08-01T02:38:53;24.00;73.80
78054;DHT22;67726;45.636;11.752;2023-08-01T02:41:19;24.10;73.60
78054;DHT22;67726;45.636;11.752;2023-08-01T02:43:44;24.00;72.90
78054;DHT22;67726;45.636;11.752;2023-08-01T02:46:10;24.10;73.10
78054;DHT22;67726;45.636;11.752;2023-08-01T02:48:36;24.00;74.10
78054;DHT22;67726;45.636;11.752;2023-08-01T02:51:02;24.00;73.20
78054;DHT22;67726;45.636;11.752;2023-08-01T02:53:28;23.90;74.00
78054;DHT22;67726;45.636;11.752;2023-08-01T02:55:53;23.90;74.30
78054;DHT22;67726;45.636;11.752;2023-08-01T02:58:19;23.80;74.00
78054;DHT22;67726;45.636;11.752;2023-08-01T03:00:44;23.80;74.30
78054;DHT22;67726;45.636;11.752;2023-08-01T03:03:10;23.80;74.50
78054;DHT22;67726;45.636;11.752;2023-08-01T03:05:36;23.70;74.50
78054;DHT22;67726;45.636;11.752;2023-08-01T03:08:03;23.70;74.40
78054;DHT22;67726;45.636;11.752;2023-08-01T03:10:29;23.70;74.60
78054;DHT22;67726;45.636;11.752;2023-08-01T03:12:55;23.70;74.30
78054;DHT22;67726;45.636;11.752;2023-08-01T03:15:21;23.60;74.80
78054;DHT22;67726;45.636;11.752;2023-08-01T03:17:47;23.70;74.70
78054;DHT22;67726;45.636;11.752;2023-08-01T03:20:12;23.60;75.50
78054;DHT22;67726;45.636;11.752;2023-08-01T03:22:39;23.70;74.80
78054;DHT22;67726;45.636;11.752;2023-08-01T03:25:06;23.60;75.40
78054;DHT22;67726;45.636;11.752;2023-08-01T03:27:35;23.60;75.50
78054;DHT22;67726;45.636;11.752;2023-08-01T03:30:01;23.70;74.80
78054;DHT22;67726;45.636;11.752;2023-08-01T03:32:27;23.70;75.10
78054;DHT22;67726;45.636;11.752;2023-08-01T03:34:53;23.80;75.00
78054;DHT22;67726;45.636;11.752;2023-08-01T03:37:18;23.70;75.00
78054;DHT22;67726;45.636;11.752;2023-08-01T03:39:44;23.80;75.00
78054;DHT22;67726;45.636;11.752;2023-08-01T03:42:10;23.80;75.20
78054;DHT22;67726;45.636;11.752;2023-08-01T03:44:36;23.90;75.10
78054;DHT22;67726;45.636;11.752;2023-08-01T03:47:02;23.90;75.10
78054;DHT22;67726;45.636;11.752;2023-08-01T03:49:27;23.80;75.10
78054;DHT22;67726;45.636;11.752;2023-08-01T03:51:53;23.90;75.20
78054;DHT22;67726;45.636;11.752;2023-08-01T03:54:19;23.90;75.10
78054;DHT22;67726;45.636;11.752;2023-08-01T03:56:44;23.90;75.10
78054;DHT22;67726;45.636;11.752;2023-08-01T03:59:13;23.90;75.20
78054;DHT22;67726;45.636;11.752;2023-08-01T04:01:38;23.80;75.00
78054;DHT22;67726;45.636;11.752;2023-08-01T04:04:04;23.90;75.00
78054;DHT22;67726;45.636;11.752;2023-08-01T04:06:30;23.90;74.90
78054;DHT22;67726;45.636;11.752;2023-08-01T04:08:55;23.90;74.90
78054;DHT22;67726;45.636;11.752;2023-08-01T04:11:22;23.90;75.20
78054;DHT22;67726;45.636;11.752;2023-08-01T04:13:48;24.00;75.00
78054;DHT22;67726;45.636;11.752;2023-08-01T04:16:14;24.00;75.10
78054;DHT22;67726;45.636;11.752;2023-08-01T04:18:39;23.90;75.20
78054;DHT22;67726;45.636;11.752;2023-08-01T04:21:06;23.90;75.60
78054;DHT22;67726;45.636;11.752;2023-08-01T04:23:32;23.90;75.50
78054;DHT22;67726;45.636;11.752;2023-08-01T04:25:57;24.00;75.60
78054;DHT22;67726;45.636;11.752;2023-08-01T04:28:25;23.80;76.10
78054;DHT22;67726;45.636;11.752;2023-08-01T04:30:51;23.80;76.70
78054;DHT22;67726;45.636;11.752;2023-08-01T04:33:17;23.70;77.70
78054;DHT22;67726;45.636;11.752;2023-08-01T04:35:43;23.70;78.10
78054;DHT22;67726;45.636;11.752;2023-08-01T04:38:09;23.70;77.70
78054;DHT22;67726;45.636;11.752;2023-08-01T04:40:36;23.70;78.70
78054;DHT22;67726;45.636;11.752;2023-08-01T04:43:02;23.80;78.00
78054;DHT22;67726;45.636;11.752;2023-08-01T04:45:28;23.80;77.90
78054;DHT22;67726;45.636;11.752;2023-08-01T04:47:53;23.80;77.50
78054;DHT22;67726;45.636;11.752;2023-08-01T04:50:19;24.00;77.70
78054;DHT22;67726;45.636;11.752;2023-08-01T04:52:45;24.00;77.80
78054;DHT22;67726;45.636;11.752;2023-08-01T04:55:11;24.20;76.80
78054;DHT22;67726;45.636;11.752;2023-08-01T04:57:36;24.30;76.60
78054;DHT22;67726;45.636;11.752;2023-08-01T05:00:03;24.40;76.10
78054;DHT22;67726;45.636;11.752;2023-08-01T05:02:29;24.50;76.00
78054;DHT22;67726;45.636;11.752;2023-08-01T05:04:55;24.60;76.00
78054;DHT22;67726;45.636;11.752;2023-08-01T05:07:21;24.70;76.00
78054;DHT22;67726;45.636;11.752;2023-08-01T05:09:46;24.70;75.80
78054;DHT22;67726;45.636;11.752;2023-08-01T05:12:12;24.70;75.60
78054;DHT22;67726;45.636;11.752;2023-08-01T05:14:38;24.60;75.30
78054;DHT22;67726;45.636;11.752;2023-08-01T05:17:04;24.60;75.40
78054;DHT22;67726;45.636;11.752;2023-08-01T05:19:29;24.60;75.10
78054;DHT22;67726;45.636;11.752;2023-08-01T05:21:55;24.60;74.90
78054;DHT22;67726;45.636;11.752;2023-08-01T05:24:21;24.80;74.60
78054;DHT22;67726;45.636;11.752;2023-08-01T05:26:47;24.80;74.50
78054;DHT22;67726;45.636;11.752;2023-08-01T05:29:13;24.90;73.30
78054;DHT22;67726;45.636;11.752;2023-08-01T05:31:38;24.80;73.30
78054;DHT22;67726;45.636;11.752;2023-08-01T05:34:04;24.80;73.30
78054;DHT22;67726;45.636;11.752;2023-08-01T05:36:30;24.90;73.70
78054;DHT22;67726;45.636;11.752;2023-08-01T05:38:56;24.80;74.70
78054;DHT22;67726;45.636;11.752;2023-08-01T05:41:22;24.70;74.70
78054;DHT22;67726;45.636;11.752;2023-08-01T05:43:48;24.60;76.20
78054;DHT22;67726;45.636;11.752;2023-08-01T05:46:15;24.40;76.10
78054;DHT22;67726;45.636;11.752;2023-08-01T05:48:40;24.30;76.30
78054;DHT22;67726;45.636;11.752;2023-08-01T05:51:06;24.20;77.10
78054;DHT22;67726;45.636;11.752;2023-08-01T05:53:32;24.10;77.30
78054;DHT22;67726;45.636;11.752;2023-08-01T05:55:57;24.10;77.30
78054;DHT22;67726;45.636;11.752;2023-08-01T05:58:23;24.10;77.10
78054;DHT22;67726;45.636;11.752;2023-08-01T06:00:49;24.20;77.10
78054;DHT22;67726;45.636;11.752;2023-08-01T06:03:15;24.20;78.10
78054;DHT22;67726;45.636;11.752;2023-08-01T06:05:41;24.10;78.10
78054;DHT22;67726;45.636;11.752;2023-08-01T06:08:07;24.20;78.30
78054;DHT22;67726;45.636;11.752;2023-08-01T06:10:36;24.20;78.60
78054;DHT22;67726;45.636;11.752;2023-08-01T06:13:01;24.10;78.40
78054;DHT22;67726;45.636;11.752;2023-08-01T06:15:27;23.80;79.20
78054;DHT22;67726;45.636;11.752;2023-08-01T06:17:53;23.80;79.80
78054;DHT22;67726;45.636;11.752;2023-08-01T06:20:19;23.70;80.20
78054;DHT22;67726;45.636;11.752;2023-08-01T06:22:44;23.50;81.80
78054;DHT22;67726;45.636;11.752;2023-08-01T06:25:10;23.40;84.30
78054;DHT22;67726;45.636;11.752;2023-08-01T06:27:37;23.20;84.60
78054;DHT22;67726;45.636;11.752;2023-08-01T06:30:03;22.90;84.90
78054;DHT22;67726;45.636;11.752;2023-08-01T06:32:29;22.80;85.50
78054;DHT22;67726;45.636;11.752;2023-08-01T06:34:54;22.80;84.90
78054;DHT22;67726;45.636;11.752;2023-08-01T06:37:20;22.80;84.60
78054;DHT22;67726;45.636;11.752;2023-08-01T06:39:45;22.70;85.80
78054;DHT22;67726;45.636;11.752;2023-08-01T06:42:11;22.80;85.50
78054;DHT22;67726;45.636;11.752;2023-08-01T06:44:37;22.90;85.60
78054;DHT22;67726;45.636;11.752;2023-08-01T06:47:02;23.00;85.40
78054;DHT22;67726;45.636;11.752;2023-08-01T06:49:28;23.00;84.90
78054;DHT22;67726;45.636;11.752;2023-08-01T06:51:54;23.10;84.50
78054;DHT22;67726;45.636;11.752;2023-08-01T06:54:19;23.10;84.20
78054;DHT22;67726;45.636;11.752;2023-08-01T06:56:45;23.10;84.80
78054;DHT22;67726;45.636;11.752;2023-08-01T06:59:16;23.20;84.20
78054;DHT22;67726;45.636;11.752;2023-08-01T07:01:42;23.20;84.60
78054;DHT22;67726;45.636;11.752;2023-08-01T07:04:12;23.30;84.60
78054;DHT22;67726;45.636;11.752;2023-08-01T07:06:38;23.40;84.20
78054;DHT22;67726;45.636;11.752;2023-08-01T07:09:04;23.30;84.20
78054;DHT22;67726;45.636;11.752;2023-08-01T07:11:30;23.30;83.90
78054;DHT22;67726;45.636;11.752;2023-08-01T07:13:56;23.40;84.10
78054;DHT22;67726;45.636;11.752;2023-08-01T07:16:22;23.40;84.10
78054;DHT22;67726;45.636;11.752;2023-08-01T07:18:47;23.40;84.70
78054;DHT22;67726;45.636;11.752;2023-08-01T07:21:13;23.40;84.40
78054;DHT22;67726;45.636;11.752;2023-08-01T07:23:39;23.50;84.40
78054;DHT22;67726;45.636;11.752;2023-08-01T07:26:05;23.70;83.80
78054;DHT22;67726;45.636;11.752;2023-08-01T07:28:30;23.70;83.90
78054;DHT22;67726;45.636;11.752;2023-08-01T07:31:00;23.80;83.40
78054;DHT22;67726;45.636;11.752;2023-08-01T07:33:27;23.80;83.30
78054;DHT22;67726;45.636;11.752;2023-08-01T07:35:52;23.80;83.50
78054;DHT22;67726;45.636;11.752;2023-08-01T07:38:18;23.80;83.00
78054;DHT22;67726;45.636;11.752;2023-08-01T07:40:44;23.80;82.70
78054;DHT22;67726;45.636;11.752;2023-08-01T07:43:09;23.90;83.00
78054;DHT22;67726;45.636;11.752;2023-08-01T07:45:36;24.00;83.20
78054;DHT22;67726;45.636;11.752;2023-08-01T07:48:02;24.20;83.00
78054;DHT22;67726;45.636;11.752;2023-08-01T07:50:28;24.40;83.20
78054;DHT22;67726;45.636;11.752;2023-08-01T07:52:53;24.60;82.70
78054;DHT22;67726;45.636;11.752;2023-08-01T07:55:19;24.60;82.00
78054;DHT22;67726;45.636;11.752;2023-08-01T07:57:46;24.90;82.50
78054;DHT22;67726;45.636;11.752;2023-08-01T08:00:12;24.90;81.20
78054;DHT22;67726;45.636;11.752;2023-08-01T08:02:38;24.90;81.30
78054;DHT22;67726;45.636;11.752;2023-08-01T08:05:04;24.90;80.80
78054;DHT22;67726;45.636;11.752;2023-08-01T08:07:30;25.00;80.90
78054;DHT22;67726;45.636;11.752;2023-08-01T08:09:56;25.10;81.30
78054;DHT22;67726;45.636;11.752;2023-08-01T08:12:22;25.10;81.30
78054;DHT22;67726;45.636;11.752;2023-08-01T08:14:48;25.30;81.40
78054;DHT22;67726;45.636;11.752;2023-08-01T08:17:14;25.50;80.30
78054;DHT22;67726;45.636;11.752;2023-08-01T08:19:40;25.70;80.50
78054;DHT22;67726;45.636;11.752;2023-08-01T08:22:06;25.90;79.70
78054;DHT22;67726;45.636;11.752;2023-08-01T08:24:32;26.00;78.50
78054;DHT22;67726;45.636;11.752;2023-08-01T08:26:58;26.10;78.10
78054;DHT22;67726;45.636;11.752;2023-08-01T08:29:23;26.20;79.00
78054;DHT22;67726;45.636;11.752;2023-08-01T08:31:49;26.00;77.00
78054;DHT22;67726;45.636;11.752;2023-08-01T08:34:15;26.20;78.20
78054;DHT22;67726;45.636;11.752;2023-08-01T08:36:41;26.10;75.70
78054;DHT22;67726;45.636;11.752;2023-08-01T08:39:07;26.10;77.40
78054;DHT22;67726;45.636;11.752;2023-08-01T08:41:38;26.10;77.10
78054;DHT22;67726;45.636;11.752;2023-08-01T08:44:07;26.00;76.40
78054;DHT22;67726;45.636;11.752;2023-08-01T08:46:41;25.90;77.10
78054;DHT22;67726;45.636;11.752;2023-08-01T08:49:07;26.00;76.60
78054;DHT22;67726;45.636;11.752;2023-08-01T08:51:36;26.20;76.20
78054;DHT22;67726;45.636;11.752;2023-08-01T08:54:03;26.40;75.80
78054;DHT22;67726;45.636;11.752;2023-08-01T08:56:29;26.90;75.80
78054;DHT22;67726;45.636;11.752;2023-08-01T08:58:56;27.20;75.20
78054;DHT22;67726;45.636;11.752;2023-08-01T09:01:22;27.30;72.40
78054;DHT22;67726;45.636;11.752;2023-08-01T09:03:47;27.50;74.50
78054;DHT22;67726;45.636;11.752;2023-08-01T09:06:16;27.50;72.70
78054;DHT22;67726;45.636;11.752;2023-08-01T09:08:51;27.60;71.20
78054;DHT22;67726;45.636;11.752;2023-08-01T09:11:17;27.60;68.20
78054;DHT22;67726;45.636;11.752;2023-08-01T09:13:43;27.80;70.00
78054;DHT22;67726;45.636;11.752;2023-08-01T09:16:10;27.80;70.70
78054;DHT22;67726;45.636;11.752;2023-08-01T09:18:50;28.00;70.90
78054;DHT22;67726;45.636;11.752;2023-08-01T09:21:18;28.10;67.30
78054;DHT22;67726;45.636;11.752;2023-08-01T09:23:44;28.60;67.60
78054;DHT22;67726;45.636;11.752;2023-08-01T09:26:18;29.10;61.20
78054;DHT22;67726;45.636;11.752;2023-08-01T09:28:44;30.30;60.50
78054;DHT22;67726;45.636;11.752;2023-08-01T09:31:36;31.20;58.10
78054;DHT22;67726;45.636;11.752;2023-08-01T09:34:03;31.40;55.40
78054;DHT22;67726;45.636;11.752;2023-08-01T09:36:31;31.40;56.00
78054;DHT22;67726;45.636;11.752;2023-08-01T09:39:01;32.60;53.10
78054;DHT22;67726;45.636;11.752;2023-08-01T09:41:28;34.60;45.80
78054;DHT22;67726;45.636;11.752;2023-08-01T09:43:55;35.90;44.40
78054;DHT22;67726;45.636;11.752;2023-08-01T09:46:20;36.60;40.70
78054;DHT22;67726;45.636;11.752;2023-08-01T09:48:46;37.60;39.40
78054;DHT22;67726;45.636;11.752;2023-08-01T09:51:14;38.30;38.70
78054;DHT22;67726;45.636;11.752;2023-08-01T09:53:54;38.90;37.60
78054;DHT22;67726;45.636;11.752;2023-08-01T09:56:25;39.20;32.20
78054;DHT22;67726;45.636;11.752;2023-08-01T09:58:53;40.40;36.50
78054;DHT22;67726;45.636;11.752;2023-08-01T10:01:20;40.80;29.00
78054;DHT22;67726;45.636;11.752;2023-08-01T10:03:48;39.90;34.40
78054;DHT22;67726;45.636;11.752;2023-08-01T10:06:20;38.80;35.40
78054;DHT22;67726;45.636;11.752;2023-08-01T10:08:47;37.40;35.50
78054;DHT22;67726;45.636;11.752;2023-08-01T10:11:16;36.20;37.50
78054;DHT22;67726;45.636;11.752;2023-08-01T10:13:43;35.10;38.70
78054;DHT22;67726;45.636;11.752;2023-08-01T10:16:09;34.80;38.90
78054;DHT22;67726;45.636;11.752;2023-08-01T10:18:36;34.10;43.40
78054;DHT22;67726;45.636;11.752;2023-08-01T10:21:07;34.90;41.40
78054;DHT22;67726;45.636;11.752;2023-08-01T10:23:33;35.30;39.90
78054;DHT22;67726;45.636;11.752;2023-08-01T10:26:00;34.90;42.20
78054;DHT22;67726;45.636;11.752;2023-08-01T10:28:37;35.00;41.40
78054;DHT22;67726;45.636;11.752;2023-08-01T10:33:33;34.70;40.70
78054;DHT22;67726;45.636;11.752;2023-08-01T10:35:59;34.70;41.60
78054;DHT22;67726;45.636;11.752;2023-08-01T10:38:25;35.00;39.30
78054;DHT22;67726;45.636;11.752;2023-08-01T10:40:51;35.20;39.10
78054;DHT22;67726;45.636;11.752;2023-08-01T10:43:24;34.80;39.90
78054;DHT22;67726;45.636;11.752;2023-08-01T10:46:05;34.30;41.40
78054;DHT22;67726;45.636;11.752;2023-08-01T10:48:31;33.90;42.20
78054;DHT22;67726;45.636;11.752;2023-08-01T10:50:57;33.90;45.00
78054;DHT22;67726;45.636;11.752;2023-08-01T10:53:23;34.10;43.70
78054;DHT22;67726;45.636;11.752;2023-08-01T10:55:49;34.40;39.40
78054;DHT22;67726;45.636;11.752;2023-08-01T10:58:15;35.20;40.30
78054;DHT22;67726;45.636;11.752;2023-08-01T11:00:44;35.50;40.70
78054;DHT22;67726;45.636;11.752;2023-08-01T11:03:10;35.10;38.70
78054;DHT22;67726;45.636;11.752;2023-08-01T11:05:36;34.80;41.00
78054;DHT22;67726;45.636;11.752;2023-08-01T11:08:03;34.40;42.60
78054;DHT22;67726;45.636;11.752;2023-08-01T11:10:30;34.30;44.40
78054;DHT22;67726;45.636;11.752;2023-08-01T11:12:56;34.30;41.00
78054;DHT22;67726;45.636;11.752;2023-08-01T11:15:23;35.20;41.60
78054;DHT22;67726;45.636;11.752;2023-08-01T11:17:50;36.50;36.90
78054;DHT22;67726;45.636;11.752;2023-08-01T11:20:18;36.80;36.50
78054;DHT22;67726;45.636;11.752;2023-08-01T11:22:58;35.10;36.50
78054;DHT22;67726;45.636;11.752;2023-08-01T11:25:41;34.80;39.90
78054;DHT22;67726;45.636;11.752;2023-08-01T11:28:15;34.50;39.40
78054;DHT22;67726;45.636;11.752;2023-08-01T11:30:41;33.80;41.40
78054;DHT22;67726;45.636;11.752;2023-08-01T11:33:22;34.20;44.90
78054;DHT22;67726;45.636;11.752;2023-08-01T11:35:55;35.30;37.50
78054;DHT22;67726;45.636;11.752;2023-08-01T11:38:23;36.60;40.60
78054;DHT22;67726;45.636;11.752;2023-08-01T11:40:51;37.40;40.60
78054;DHT22;67726;45.636;11.752;2023-08-01T11:43:17;36.80;39.00
78054;DHT22;67726;45.636;11.752;2023-08-01T11:45:53;35.50;39.70
78054;DHT22;67726;45.636;11.752;2023-08-01T11:48:24;35.90;36.50
78054;DHT22;67726;45.636;11.752;2023-08-01T11:50:57;35.30;39.50
78054;DHT22;67726;45.636;11.752;2023-08-01T11:53:23;35.00;40.30
78054;DHT22;67726;45.636;11.752;2023-08-01T11:55:50;34.60;40.30
78054;DHT22;67726;45.636;11.752;2023-08-01T11:58:32;34.30;43.60
78054;DHT22;67726;45.636;11.752;2023-08-01T12:01:11;34.50;44.00
78054;DHT22;67726;45.636;11.752;2023-08-01T12:03:48;34.60;41.80
78054;DHT22;67726;45.636;11.752;2023-08-01T12:06:17;35.10;38.80
78054;DHT22;67726;45.636;11.752;2023-08-01T12:08:44;35.20;40.80
78054;DHT22;67726;45.636;11.752;2023-08-01T12:11:24;35.20;39.20
78054;DHT22;67726;45.636;11.752;2023-08-01T12:14:19;35.10;38.20
78054;DHT22;67726;45.636;11.752;2023-08-01T12:16:46;34.90;38.50
78054;DHT22;67726;45.636;11.752;2023-08-01T12:19:18;34.60;40.00
78054;DHT22;67726;45.636;11.752;2023-08-01T12:21:45;34.20;43.60
78054;DHT22;67726;45.636;11.752;2023-08-01T12:24:11;34.10;41.50
78054;DHT22;67726;45.636;11.752;2023-08-01T12:26:36;33.40;42.90
78054;DHT22;67726;45.636;11.752;2023-08-01T12:29:02;33.30;43.70
78054;DHT22;67726;45.636;11.752;2023-08-01T12:31:28;33.80;46.80
78054;DHT22;67726;45.636;11.752;2023-08-01T12:33:53;34.30;42.90
78054;DHT22;67726;45.636;11.752;2023-08-01T12:36:19;34.50;44.90
78054;DHT22;67726;45.636;11.752;2023-08-01T12:38:45;34.90;44.70
78054;DHT22;67726;45.636;11.752;2023-08-01T12:41:10;35.10;42.90
78054;DHT22;67726;45.636;11.752;2023-08-01T12:43:36;35.00;41.10
78054;DHT22;67726;45.636;11.752;2023-08-01T12:46:04;34.70;43.10
78054;DHT22;67726;45.636;11.752;2023-08-01T12:48:30;34.90;43.90
78054;DHT22;67726;45.636;11.752;2023-08-01T12:50:56;35.20;44.30
78054;DHT22;67726;45.636;11.752;2023-08-01T12:53:22;35.40;43.20
78054;DHT22;67726;45.636;11.752;2023-08-01T12:55:49;35.00;39.30
78054;DHT22;67726;45.636;11.752;2023-08-01T12:58:15;34.80;40.60
78054;DHT22;67726;45.636;11.752;2023-08-01T13:00:42;34.90;37.90
78054;DHT22;67726;45.636;11.752;2023-08-01T13:03:08;34.70;40.10
78054;DHT22;67726;45.636;11.752;2023-08-01T13:05:35;34.60;40.90
78054;DHT22;67726;45.636;11.752;2023-08-01T13:08:01;34.20;40.60
78054;DHT22;67726;45.636;11.752;2023-08-01T13:10:30;34.20;41.90
78054;DHT22;67726;45.636;11.752;2023-08-01T13:12:57;34.30;42.80
78054;DHT22;67726;45.636;11.752;2023-08-01T13:15:23;34.50;42.90
78054;DHT22;67726;45.636;11.752;2023-08-01T13:17:49;34.30;41.10
78054;DHT22;67726;45.636;11.752;2023-08-01T13:20:15;34.30;43.10
78054;DHT22;67726;45.636;11.752;2023-08-01T13:22:42;34.30;43.00
78054;DHT22;67726;45.636;11.752;2023-08-01T13:25:08;34.30;43.60
78054;DHT22;67726;45.636;11.752;2023-08-01T13:27:35;34.10;42.00
78054;DHT22;67726;45.636;11.752;2023-08-01T13:30:01;33.20;44.20
78054;DHT22;67726;45.636;11.752;2023-08-01T13:32:27;33.50;42.80
78054;DHT22;67726;45.636;11.752;2023-08-01T13:34:53;33.50;42.50
78054;DHT22;67726;45.636;11.752;2023-08-01T13:37:19;33.60;44.40
78054;DHT22;67726;45.636;11.752;2023-08-01T13:39:44;33.30;43.80
78054;DHT22;67726;45.636;11.752;2023-08-01T13:42:12;33.20;43.00
78054;DHT22;67726;45.636;11.752;2023-08-01T13:44:38;33.00;45.10
78054;DHT22;67726;45.636;11.752;2023-08-01T13:47:04;33.10;44.80
78054;DHT22;67726;45.636;11.752;2023-08-01T13:49:30;33.10;45.60
78054;DHT22;67726;45.636;11.752;2023-08-01T13:51:55;33.10;44.60
78054;DHT22;67726;45.636;11.752;2023-08-01T13:54:21;32.90;44.90
78054;DHT22;67726;45.636;11.752;2023-08-01T13:56:47;32.50;45.60
78054;DHT22;67726;45.636;11.752;2023-08-01T13:59:12;32.50;46.30
78054;DHT22;67726;45.636;11.752;2023-08-01T14:01:38;32.60;47.30
78054;DHT22;67726;45.636;11.752;2023-08-01T14:04:04;32.70;46.70
78054;DHT22;67726;45.636;11.752;2023-08-01T14:06:30;32.70;45.40
78054;DHT22;67726;45.636;11.752;2023-08-01T14:08:56;32.70;46.80
78054;DHT22;67726;45.636;11.752;2023-08-01T14:11:21;32.80;47.60
78054;DHT22;67726;45.636;11.752;2023-08-01T14:13:47;32.90;47.50
78054;DHT22;67726;45.636;11.752;2023-08-01T14:16:13;33.00;46.60
78054;DHT22;67726;45.636;11.752;2023-08-01T14:18:38;33.00;46.50
78054;DHT22;67726;45.636;11.752;2023-08-01T14:21:05;33.00;45.60
78054;DHT22;67726;45.636;11.752;2023-08-01T14:23:31;33.00;47.20
78054;DHT22;67726;45.636;11.752;2023-08-01T14:25:58;33.20;47.70
78054;DHT22;67726;45.636;11.752;2023-08-01T14:28:23;33.10;46.50
78054;DHT22;67726;45.636;11.752;2023-08-01T14:30:49;33.10;46.20
78054;DHT22;67726;45.636;11.752;2023-08-01T14:33:15;33.00;45.30
78054;DHT22;67726;45.636;11.752;2023-08-01T14:35:40;33.00;46.00
78054;DHT22;67726;45.636;11.752;2023-08-01T14:38:07;32.90;46.00
78054;DHT22;67726;45.636;11.752;2023-08-01T14:40:34;32.90;44.60
78054;DHT22;67726;45.636;11.752;2023-08-01T14:43:01;33.10;46.90
78054;DHT22;67726;45.636;11.752;2023-08-01T14:45:27;33.50;44.30
78054;DHT22;67726;45.636;11.752;2023-08-01T14:47:52;33.80;45.50
78054;DHT22;67726;45.636;11.752;2023-08-01T14:50:18;33.90;45.70
78054;DHT22;67726;45.636;11.752;2023-08-01T14:52:44;33.90;46.30
78054;DHT22;67726;45.636;11.752;2023-08-01T14:55:10;34.00;46.70
78054;DHT22;67726;45.636;11.752;2023-08-01T14:57:36;33.80;44.90
78054;DHT22;67726;45.636;11.752;2023-08-01T15:00:02;33.90;46.30
78054;DHT22;67726;45.636;11.752;2023-08-01T15:02:28;33.80;47.00
78054;DHT22;67726;45.636;11.752;2023-08-01T15:04:55;33.70;44.80
78054;DHT22;67726;45.636;11.752;2023-08-01T15:07:22;33.60;45.40
78054;DHT22;67726;45.636;11.752;2023-08-01T15:09:48;33.50;46.80
78054;DHT22;67726;45.636;11.752;2023-08-01T15:12:15;33.40;46.90
78054;DHT22;67726;45.636;11.752;2023-08-01T15:14:41;33.50;46.80